Idaville, Indiana
Current Conditions -  °F | °C
As of 4:55 PM on Friday 24 Oct 2014 (Local Time) from KMCX Reporting Station
Broken Clouds Broken Clouds  
Wind Chill: 65°   Ceiling: 3200
Heat Index: 65°   Visibility: 7mi
Dew Point: 53°   Wind: 8mph
Humidity: 65%   Direction: 270°W
Pressure: 29.99"   Gusts: NA
Location:  40.76°N, 86.65°W
Report Text: KMCX 242055Z AUTO 27007KT 7SM BKN032 18/12 A2999 RMK AO2 T01840117
Loading
Personal Weather Stations






























Interactive Weather Map
Tropical Storm Tracking
New forecast layout! Learn more

10-Day Weather Forecast

Advertisements
Track Severe Weather on mobile